Time;durP1;ratioP1;P1;durP2;ratioP2;P2;SDS_P1;SDS_P2;PMS_P1;PMS_P2;Temp;Humidity;BMP_temperature;BMP_pressure;BME280_temperature;BME280_humidity;BME280_pressure;Samples;Min_cycle;Max_cycle;Signal;HPM_P1;HPM_P2
2023/02/20 00:02:00;;;;;;;3.90;3.37;;;;;;;7.75;100.00;153351.28;4952918;28;20557;-79
2023/02/20 00:04:26;;;;;;;5.53;3.27;;;;;;;7.73;100.00;153344.81;4976823;28;20473;-79
2023/02/20 00:06:55;;;;;;;4.17;3.77;;;;;;;7.72;100.00;153343.53;4960092;28;20458;-77
2023/02/20 00:09:21;;;;;;;6.77;3.20;;;;;;;7.73;100.00;153344.81;4958700;28;20446;-79
2023/02/20 00:11:48;;;;;;;5.80;3.27;;;;;;;7.72;100.00;153342.22;4970816;28;20566;-79
2023/02/20 00:14:15;;;;;;;5.93;3.67;;;;;;;7.69;100.00;153334.47;4981299;28;20534;-78
2023/02/20 00:16:41;;;;;;;6.73;3.50;;;;;;;7.69;100.00;153334.47;4969586;28;20456;-79
2023/02/20 00:19:08;;;;;;;3.33;2.83;;;;;;;7.73;100.00;153346.06;4954018;28;20450;-79
2023/02/20 00:21:34;;;;;;;5.73;3.27;;;;;;;7.75;100.00;153349.97;4952882;28;20446;-79
2023/02/20 00:24:04;;;;;;;5.07;3.03;;;;;;;7.73;100.00;153346.06;4972599;28;20542;-79
2023/02/20 00:26:30;;;;;;;4.23;3.07;;;;;;;7.71;100.00;153339.63;4951984;28;20801;-79
2023/02/20 00:28:57;;;;;;;4.03;3.23;;;;;;;7.67;100.00;153329.31;4984339;28;20850;-79
2023/02/20 00:31:24;;;;;;;7.37;3.20;;;;;;;7.72;100.00;153342.22;4962310;28;20469;-79
2023/02/20 00:33:50;;;;;;;11.70;4.90;;;;;;;7.72;100.00;153343.53;4967673;28;20467;-79
2023/02/20 00:36:18;;;;;;;3.37;3.07;;;;;;;7.74;100.00;153347.38;4960114;28;20575;-78
2023/02/20 00:38:45;;;;;;;3.33;2.83;;;;;;;7.71;100.00;153339.63;4958729;28;20539;-79
2023/02/20 00:41:14;;;;;;;4.47;3.30;;;;;;;7.70;100.00;153338.38;4954781;28;20489;-78
2023/02/20 00:43:41;;;;;;;4.97;3.17;;;;;;;7.72;100.00;153342.22;4973246;28;20451;-79
2023/02/20 00:46:11;;;;;;;6.70;3.30;;;;;;;7.69;100.00;153334.47;4951877;28;20558;-79
2023/02/20 00:48:37;;;;;;;3.90;3.20;;;;;;;7.67;100.00;153329.31;4970753;28;20576;-79
2023/02/20 00:51:23;;;;;;;6.10;3.33;;;;;;;7.67;100.00;153329.31;4970335;28;20545;-78
2023/02/20 00:53:50;;;;;;;6.20;3.27;;;;;;;7.68;100.00;153333.16;4968470;28;20458;-79
2023/02/20 00:56:18;;;;;;;5.93;3.63;;;;;;;7.69;100.00;153334.47;4964612;28;20553;-79
2023/02/20 00:58:45;;;;;;;5.03;3.67;;;;;;;7.70;100.00;153337.06;4959935;28;20454;-79
2023/02/20 01:01:13;;;;;;;3.70;2.80;;;;;;;7.69;100.00;153335.75;4956261;28;20466;-79
2023/02/20 01:03:40;;;;;;;4.90;4.00;;;;;;;7.69;100.00;153334.47;4946456;28;20524;-79
2023/02/20 01:06:08;;;;;;;3.07;2.77;;;;;;;7.68;100.00;153331.84;4972441;28;20459;-79
2023/02/20 01:08:35;;;;;;;3.90;3.27;;;;;;;7.65;100.00;153325.41;4942283;28;20800;-78
2023/02/20 01:11:03;;;;;;;5.30;2.80;;;;;;;7.67;100.00;153329.31;4952041;28;20447;-79
2023/02/20 01:13:31;;;;;;;4.70;3.20;;;;;;;7.67;100.00;153330.59;4971275;28;20493;-79
2023/02/20 01:15:58;;;;;;;4.93;3.40;;;;;;;7.63;100.00;153320.25;4970739;28;20453;-78
2023/02/20 01:18:24;;;;;;;4.83;3.90;;;;;;;7.62;100.00;153317.69;4977864;28;21014;-78
2023/02/20 01:20:52;;;;;;;5.10;3.07;;;;;;;7.56;100.00;153300.88;4964098;28;20817;-78
2023/02/20 01:23:18;;;;;;;3.80;3.43;;;;;;;7.52;100.00;153290.56;4956626;28;20519;-79
2023/02/20 01:25:45;;;;;;;5.43;3.60;;;;;;;7.50;100.00;153286.66;4964779;28;20470;-79
2023/02/20 01:28:12;;;;;;;4.60;3.33;;;;;;;7.43;100.00;153268.59;4966804;28;20949;-78
2023/02/20 01:30:40;;;;;;;5.60;3.20;;;;;;;7.41;100.00;153262.16;4958466;28;20537;-78
2023/02/20 01:33:09;;;;;;;4.20;3.23;;;;;;;7.42;100.00;153264.69;4959305;28;20486;-79
2023/02/20 01:35:36;;;;;;;3.73;2.93;;;;;;;7.35;100.00;153247.94;4968352;28;20467;-78
2023/02/20 01:38:05;;;;;;;4.20;3.63;;;;;;;7.33;100.00;153244.03;4962943;28;20449;-78
2023/02/20 01:40:33;;;;;;;4.67;3.80;;;;;;;7.33;100.00;153242.78;4974041;28;20442;-78
2023/02/20 01:43:01;;;;;;;4.93;3.67;;;;;;;7.28;100.00;153231.13;4954606;28;20946;-78
2023/02/20 01:45:32;;;;;;;5.80;3.50;;;;;;;7.24;100.00;153220.81;4942150;28;21021;-79
2023/02/20 01:48:01;;;;;;;5.50;3.17;;;;;;;7.21;100.00;153213.06;4966982;28;20451;-78
2023/02/20 01:50:30;;;;;;;6.90;3.53;;;;;;;7.26;100.00;153224.66;4974143;28;20439;-78
2023/02/20 01:53:00;;;;;;;6.30;3.90;;;;;;;7.17;100.00;153202.75;4953264;28;20560;-78
2023/02/20 01:55:30;;;;;;;4.90;3.40;;;;;;;7.13;100.00;153192.41;4963695;28;20429;-78
2023/02/20 01:57:58;;;;;;;4.60;3.40;;;;;;;7.11;100.00;153185.94;4950829;28;20537;-79
2023/02/20 02:00:25;;;;;;;3.90;3.23;;;;;;;7.09;100.00;153182.09;4959666;28;20846;-79
2023/02/20 02:02:57;;;;;;;5.10;3.23;;;;;;;7.09;100.00;153182.09;4958321;28;20599;-78
2023/02/20 02:05:26;;;;;;;4.30;3.70;;;;;;;7.08;100.00;153178.19;4950740;28;20441;-78
2023/02/20 02:07:54;;;;;;;7.63;3.90;;;;;;;7.06;100.00;153173.03;4972574;28;20459;-78
2023/02/20 02:10:25;;;;;;;6.73;3.27;;;;;;;7.06;100.00;153174.34;4978427;28;20457;-78
2023/02/20 02:12:53;;;;;;;5.53;3.30;;;;;;;7.05;100.00;153171.75;4967720;28;20873;-77
2023/02/20 02:15:22;;;;;;;5.20;3.30;;;;;;;7.06;100.00;153173.03;4965628;28;20530;-77
2023/02/20 02:18:29;;;;;;;4.90;3.33;;;;;;;7.08;100.00;153179.50;4953682;28;20545;-77
2023/02/20 02:21:31;;;;;;;5.80;3.73;;;;;;;7.09;100.00;153182.09;4953753;28;20530;-77
2023/02/20 02:24:36;;;;;;;6.00;3.67;;;;;;;7.12;100.00;153189.81;4951868;28;20451;-77
2023/02/20 02:27:43;;;;;;;3.53;2.90;;;;;;;7.10;100.00;153184.66;4941768;28;20450;-78
2023/02/20 02:30:46;;;;;;;4.67;2.90;;;;;;;7.12;100.00;153188.56;4950171;28;20489;-78
2023/02/20 02:33:35;;;;;;;5.57;3.50;;;;;;;7.16;100.00;153200.16;4973245;28;21080;-78
2023/02/20 02:36:38;;;;;;;4.53;3.57;;;;;;;7.19;100.00;153207.91;4956662;28;20530;-78
2023/02/20 02:39:15;;;;;;;6.30;4.07;;;;;;;7.22;100.00;153215.66;4958257;28;20500;-77
2023/02/20 02:41:46;;;;;;;5.47;3.77;;;;;;;7.20;100.00;153209.22;4963755;28;20453;-77
2023/02/20 02:44:15;;;;;;;5.60;3.73;;;;;;;7.18;100.00;153205.31;4978512;28;20454;-78
2023/02/20 02:46:47;;;;;;;4.80;3.50;;;;;;;7.19;100.00;153207.91;4979302;28;20445;-77
2023/02/20 02:49:19;;;;;;;4.00;3.30;;;;;;;7.19;100.00;153206.63;4957502;28;20458;-77
2023/02/20 02:51:48;;;;;;;5.70;3.03;;;;;;;7.21;100.00;153213.06;4971865;28;20517;-77
2023/02/20 02:54:16;;;;;;;4.13;3.60;;;;;;;7.19;100.00;153207.91;4947708;28;20445;-77
2023/02/20 02:56:48;;;;;;;6.77;3.30;;;;;;;7.19;100.00;153207.91;4957412;28;20478;-77
2023/02/20 02:59:18;;;;;;;5.53;3.47;;;;;;;7.24;100.00;153220.81;4942927;28;20538;-77
2023/02/20 03:01:47;;;;;;;4.90;3.50;;;;;;;7.20;100.00;153210.47;4984715;28;20726;-77
2023/02/20 03:04:22;;;;;;;5.93;2.80;;;;;;;7.17;100.00;153202.75;4962188;28;20494;-77
2023/02/20 03:06:51;;;;;;;4.97;3.17;;;;;;;7.20;100.00;153209.22;4959050;28;20457;-78
2023/02/20 03:09:20;;;;;;;7.20;4.20;;;;;;;7.18;100.00;153205.31;4953158;28;20455;-77
2023/02/20 03:11:49;;;;;;;5.20;3.60;;;;;;;7.13;100.00;153192.41;4965992;28;20509;-79
2023/02/20 03:17:11;;;;;;;4.10;3.27;;;;;;;7.16;100.00;153198.84;4963452;28;20485;-78
2023/02/20 03:19:41;;;;;;;6.60;3.53;;;;;;;7.14;100.00;153195.00;4956655;28;20473;-78
2023/02/20 03:22:15;;;;;;;4.53;3.17;;;;;;;7.14;100.00;153195.00;4954740;28;20561;-78
2023/02/20 03:24:54;;;;;;;4.53;3.37;;;;;;;7.12;100.00;153189.81;4978041;28;20456;-78
2023/02/20 03:27:29;;;;;;;4.40;3.90;;;;;;;7.10;100.00;153184.66;4939544;28;20447;-78
2023/02/20 03:29:58;;;;;;;4.70;3.40;;;;;;;7.09;100.00;153182.09;4984052;28;20993;-78
2023/02/20 03:43:32;;;;;;;5.30;3.33;;;;;;;7.08;100.00;153178.19;4938501;28;20454;-78
2023/02/20 03:46:02;;;;;;;6.30;3.10;;;;;;;7.05;100.00;153170.44;4952244;28;20462;-78
2023/02/20 03:48:33;;;;;;;6.93;3.80;;;;;;;7.02;100.00;153162.69;4959279;28;20454;-78
2023/02/20 03:51:01;;;;;;;7.33;3.53;;;;;;;7.00;100.00;153158.84;4955158;28;20848;-78
2023/02/20 03:53:34;;;;;;;3.90;3.50;;;;;;;7.00;100.00;153158.84;4976242;28;20826;-78
2023/02/20 03:56:04;;;;;;;5.17;3.50;;;;;;;6.99;100.00;153155.00;4941992;28;20465;-78
2023/02/20 03:58:33;;;;;;;4.77;3.43;;;;;;;6.99;100.00;153155.00;4964970;28;20439;-78
2023/02/20 04:01:02;;;;;;;4.27;3.60;;;;;;;6.99;100.00;153155.00;4967931;28;20459;-78
2023/02/20 04:03:32;;;;;;;10.03;3.93;;;;;;;6.97;100.00;153149.78;4967166;28;20491;-78
2023/02/20 04:06:00;;;;;;;4.80;3.63;;;;;;;7.00;100.00;153158.84;4951922;28;20452;-78
2023/02/20 04:08:36;;;;;;;8.43;3.97;;;;;;;6.97;100.00;153151.09;4934972;28;20455;-78
2023/02/20 04:11:06;;;;;;;4.53;3.13;;;;;;;6.96;100.00;153147.25;4956172;28;21030;-78
2023/02/20 04:13:33;;;;;;;4.13;3.33;;;;;;;6.92;100.00;153138.19;4969942;28;20474;-78
2023/02/20 04:16:02;;;;;;;6.77;3.40;;;;;;;6.85;100.00;153120.13;4960521;28;20466;-78
2023/02/20 04:18:29;;;;;;;5.60;3.57;;;;;;;6.83;100.00;153114.94;4961407;28;20457;-78
2023/02/20 04:20:59;;;;;;;4.57;3.53;;;;;;;6.74;100.00;153093.03;4953534;28;20450;-78
2023/02/20 04:23:36;;;;;;;5.87;3.53;;;;;;;6.72;100.00;153086.56;4956082;28;20450;-78
2023/02/20 04:26:06;;;;;;;4.67;3.60;;;;;;;6.64;100.00;153065.91;4966577;28;20511;-78
2023/02/20 04:28:35;;;;;;;4.67;3.40;;;;;;;6.61;100.00;153059.47;4978843;28;20455;-78
2023/02/20 04:31:05;;;;;;;5.23;3.60;;;;;;;6.61;100.00;153058.16;4959421;28;20483;-78
2023/02/20 04:33:34;;;;;;;5.70;4.37;;;;;;;6.53;100.00;153037.50;4957042;28;20479;-78
2023/02/20 04:36:06;;;;;;;4.13;3.20;;;;;;;6.52;100.00;153034.91;4944847;28;20485;-78
2023/02/20 04:38:33;;;;;;;3.83;3.43;;;;;;;6.49;100.00;153027.16;4958359;28;20520;-78
2023/02/20 04:41:04;;;;;;;5.10;4.23;;;;;;;6.46;100.00;153020.72;4960813;28;20454;-78
2023/02/20 04:43:31;;;;;;;12.07;4.17;;;;;;;6.44;100.00;153015.56;4946652;28;20462;-77
2023/02/20 04:45:58;;;;;;;4.73;3.10;;;;;;;6.40;100.00;153005.28;4952113;28;20898;-78
2023/02/20 04:48:24;;;;;;;5.40;3.90;;;;;;;6.36;100.00;152994.91;4962257;28;20773;-78
2023/02/20 04:50:52;;;;;;;6.33;3.70;;;;;;;6.35;100.00;152992.38;4968343;28;20720;-78
2023/02/20 04:53:19;;;;;;;5.30;3.70;;;;;;;6.30;100.00;152978.16;4958508;28;21084;-78
2023/02/20 04:55:46;;;;;;;4.60;3.53;;;;;;;6.27;100.00;152970.41;4972196;28;20545;-78
2023/02/20 04:58:18;;;;;;;5.30;3.50;;;;;;;6.26;100.00;152967.81;4973930;28;20532;-78
2023/02/20 05:00:54;;;;;;;4.43;3.37;;;;;;;6.25;100.00;152965.28;4951823;28;20481;-77
2023/02/20 05:03:21;;;;;;;6.53;3.73;;;;;;;6.20;100.00;152952.31;4978555;28;20458;-78
2023/02/20 05:05:48;;;;;;;4.90;3.37;;;;;;;6.14;100.00;152939.44;4972595;28;20457;-78
2023/02/20 05:08:14;;;;;;;6.63;3.20;;;;;;;6.13;100.00;152936.88;4968313;28;20449;-78
2023/02/20 05:10:41;;;;;;;7.27;4.20;;;;;;;6.12;100.00;152932.97;4956256;28;20870;-78
2023/02/20 05:13:08;;;;;;;5.80;3.80;;;;;;;6.10;100.00;152929.13;4958367;28;20865;-78
2023/02/20 05:15:36;;;;;;;4.30;3.50;;;;;;;6.04;100.00;152913.63;4963346;28;20466;-77
2023/02/20 05:18:03;;;;;;;4.50;3.70;;;;;;;6.02;100.00;152908.50;4979516;28;20460;-77
2023/02/20 05:23:14;;;;;;;8.63;4.00;;;;;;;6.00;100.00;152903.34;4986964;28;20445;-78
2023/02/20 05:25:41;;;;;;;4.50;3.53;;;;;;;5.95;100.00;152890.44;4963792;28;20459;-78
2023/02/20 05:28:08;;;;;;;6.63;4.43;;;;;;;6.00;100.00;152903.34;4973124;28;20858;-78
2023/02/20 05:30:36;;;;;;;5.43;3.53;;;;;;;5.97;100.00;152895.59;4976066;28;20585;-78
2023/02/20 05:33:02;;;;;;;7.03;4.10;;;;;;;5.93;100.00;152885.25;4971592;28;20910;-78
2023/02/20 05:35:29;;;;;;;5.30;4.53;;;;;;;5.80;100.00;152851.66;4974506;28;20490;-78
2023/02/20 05:37:56;;;;;;;6.77;4.10;;;;;;;5.92;100.00;152881.41;4954115;28;20461;-78
2023/02/20 05:40:22;;;;;;;4.60;3.97;;;;;;;5.86;100.00;152867.22;4970151;28;20505;-78
2023/02/20 05:42:49;;;;;;;5.10;4.27;;;;;;;5.85;100.00;152864.63;4971822;28;20521;-79
2023/02/20 05:45:16;;;;;;;5.60;3.93;;;;;;;5.84;100.00;152862.00;4969397;28;20461;-78
2023/02/20 05:47:44;;;;;;;4.00;3.37;;;;;;;5.78;100.00;152846.53;4972722;28;20475;-78
2023/02/20 05:50:11;;;;;;;5.57;4.17;;;;;;;5.76;100.00;152840.06;4945721;28;21068;-78
2023/02/20 05:52:37;;;;;;;8.50;5.30;;;;;;;5.77;100.00;152843.94;4972511;28;20467;-78
2023/02/20 05:55:04;;;;;;;5.20;4.20;;;;;;;5.76;100.00;152841.38;4961359;28;20577;-77
2023/02/20 05:57:31;;;;;;;7.07;4.20;;;;;;;5.74;100.00;152836.22;4957476;28;20451;-78
2023/02/20 05:59:58;;;;;;;7.23;3.97;;;;;;;5.71;100.00;152828.47;4970903;28;20474;-77
2023/02/20 06:02:25;;;;;;;5.57;4.07;;;;;;;5.71;100.00;152828.47;4963293;28;20923;-77
2023/02/20 06:04:53;;;;;;;6.63;4.37;;;;;;;5.72;100.00;152829.78;4963286;28;20451;-78
2023/02/20 06:07:19;;;;;;;5.97;4.10;;;;;;;5.73;100.00;152833.63;4967453;28;20574;-79
2023/02/20 06:09:46;;;;;;;5.53;4.27;;;;;;;5.67;100.00;152816.84;4956005;28;20804;-77
2023/02/20 06:12:13;;;;;;;6.43;4.07;;;;;;;5.67;100.00;152818.16;4966872;28;20511;-78
2023/02/20 06:14:40;;;;;;;5.90;4.00;;;;;;;5.67;100.00;152816.84;4956590;28;20466;-78
2023/02/20 06:17:07;;;;;;;7.37;5.50;;;;;;;5.67;100.00;152816.84;4954880;28;20526;-77
2023/02/20 06:19:33;;;;;;;8.00;4.53;;;;;;;5.67;100.00;152818.16;4966153;28;20541;-77
2023/02/20 06:22:01;;;;;;;6.87;4.83;;;;;;;5.68;100.00;152820.75;4963066;28;20454;-77
2023/02/20 06:24:29;;;;;;;6.90;4.57;;;;;;;5.64;100.00;152810.41;4956296;28;20489;-77
2023/02/20 06:26:55;;;;;;;4.77;4.20;;;;;;;5.62;100.00;152805.25;4949928;28;20831;-77
2023/02/20 06:29:23;;;;;;;6.93;4.10;;;;;;;5.62;100.00;152803.97;4963017;28;20481;-77
2023/02/20 06:31:49;;;;;;;4.90;4.40;;;;;;;5.56;100.00;152788.50;4950637;28;20539;-78
2023/02/20 06:34:17;;;;;;;6.07;4.63;;;;;;;5.56;100.00;152789.75;4952221;28;20474;-77
2023/02/20 06:36:44;;;;;;;8.70;4.40;;;;;;;5.55;100.00;152787.22;4951909;28;20555;-78
2023/02/20 06:39:13;;;;;;;6.23;4.60;;;;;;;5.57;100.00;152792.38;4965353;28;20841;-78
2023/02/20 06:41:40;;;;;;;8.90;4.83;;;;;;;5.56;100.00;152789.75;4962347;28;20522;-77
2023/02/20 06:44:06;;;;;;;4.40;4.00;;;;;;;5.57;100.00;152792.38;4960364;28;20519;-78
2023/02/20 06:46:33;;;;;;;5.43;4.37;;;;;;;5.60;100.00;152798.81;4961315;28;20452;-78
2023/02/20 06:49:00;;;;;;;7.10;4.70;;;;;;;5.62;100.00;152805.25;4964546;28;20450;-79
2023/02/20 06:51:29;;;;;;;5.40;4.27;;;;;;;5.68;100.00;152820.75;4950295;28;20511;-78
2023/02/20 06:53:55;;;;;;;6.30;4.30;;;;;;;5.75;100.00;152838.78;4951606;28;20466;-79
2023/02/20 06:56:25;;;;;;;5.43;4.00;;;;;;;5.84;100.00;152862.00;4962722;28;20459;-78
2023/02/20 06:58:53;;;;;;;7.23;4.83;;;;;;;5.98;100.00;152898.16;4949247;28;20458;-78
2023/02/20 07:01:21;;;;;;;5.70;3.90;;;;;;;6.14;100.00;152939.44;4947290;28;20489;-79
2023/02/20 07:03:49;;;;;;;5.60;4.43;;;;;;;6.27;100.00;152971.72;4949576;28;20954;-78
2023/02/20 07:06:16;;;;;;;4.93;3.93;;;;;;;6.49;100.00;153027.16;4949656;28;20545;-78
2023/02/20 07:08:43;;;;;;;6.43;4.33;;;;;;;6.67;100.00;153074.91;4960736;28;20526;-79
2023/02/20 07:11:10;;;;;;;9.23;4.53;;;;;;;6.86;100.00;153121.44;4951531;28;20467;-79
2023/02/20 07:13:38;;;;;;;6.90;4.10;;;;;;;6.96;100.00;153147.25;4960433;28;20502;-79
2023/02/20 07:16:05;;;;;;;6.93;4.50;;;;;;;7.13;100.00;153191.09;4964307;28;20543;-79
2023/02/20 07:18:32;;;;;;;7.00;4.80;;;;;;;7.31;99.79;153237.59;4952458;28;20455;-77
2023/02/20 07:20:59;;;;;;;5.20;3.97;;;;;;;7.56;98.78;153300.88;4949951;28;20458;-77
2023/02/20 07:23:26;;;;;;;7.70;4.83;;;;;;;7.76;97.66;153353.84;4964096;28;20455;-77
2023/02/20 07:25:53;;;;;;;5.77;4.17;;;;;;;7.91;96.44;153391.31;4962335;28;20529;-77
2023/02/20 07:28:20;;;;;;;5.83;4.27;;;;;;;8.09;94.19;153437.81;4962235;28;20857;-78
2023/02/20 07:30:48;;;;;;;8.77;4.40;;;;;;;8.25;94.07;153479.19;4945544;28;20459;-78
2023/02/20 07:33:19;;;;;;;6.77;4.20;;;;;;;8.38;93.61;153512.84;4950189;28;20806;-77
2023/02/20 07:35:46;;;;;;;9.13;3.57;;;;;;;8.52;92.52;153549.00;4951710;28;20993;-78
2023/02/20 07:38:14;;;;;;;5.87;4.33;;;;;;;8.64;91.16;153578.75;4958833;28;20453;-78
2023/02/20 07:40:41;;;;;;;6.90;3.90;;;;;;;8.75;90.42;153605.91;4964238;28;20528;-78
2023/02/20 07:43:12;;;;;;;4.50;3.30;;;;;;;8.90;90.07;153645.97;4948437;28;20822;-78
2023/02/20 07:45:38;;;;;;;4.90;3.87;;;;;;;9.15;89.61;153709.34;4960098;28;20454;-77
2023/02/20 07:48:07;;;;;;;4.67;3.40;;;;;;;9.29;87.76;153744.28;4963740;28;20478;-78
2023/02/20 07:50:34;;;;;;;8.43;4.07;;;;;;;9.62;86.65;153830.94;4964859;28;20553;-78
2023/02/20 07:53:00;;;;;;;5.50;3.67;;;;;;;9.72;85.50;153856.81;4960450;28;20443;-78
2023/02/20 07:55:30;;;;;;;4.23;3.40;;;;;;;9.88;84.90;153896.91;4962335;28;20827;-79
2023/02/20 07:57:57;;;;;;;5.20;3.77;;;;;;;10.13;83.15;153960.41;4962103;28;20453;-78
2023/02/20 08:00:26;;;;;;;5.43;3.60;;;;;;;10.22;82.41;153983.66;4944424;28;20799;-77
2023/02/20 08:02:53;;;;;;;3.83;3.37;;;;;;;10.37;82.34;154022.53;4953582;28;20452;-78
2023/02/20 08:05:22;;;;;;;4.93;3.53;;;;;;;10.45;81.82;154041.94;4962097;28;20439;-78
2023/02/20 08:07:49;;;;;;;3.80;3.40;;;;;;;10.54;82.00;154066.53;4948566;28;20538;-78
2023/02/20 08:10:18;;;;;;;4.10;3.70;;;;;;;10.49;80.85;154052.28;4927360;28;20476;-78
2023/02/20 08:12:45;;;;;;;4.53;3.03;;;;;;;10.51;79.97;154058.75;4945931;28;20454;-78
2023/02/20 08:15:12;;;;;;;4.13;3.33;;;;;;;10.43;79.69;154038.09;4964039;28;20893;-78
2023/02/20 08:17:39;;;;;;;4.43;3.43;;;;;;;10.35;82.56;154018.63;4950316;28;20503;-78
2023/02/20 08:20:07;;;;;;;5.47;3.30;;;;;;;10.37;81.45;154022.53;4948153;28;20459;-78
2023/02/20 08:22:35;;;;;;;5.80;3.30;;;;;;;10.33;81.04;154013.47;4961685;28;20475;-78
2023/02/20 08:25:03;;;;;;;9.13;2.83;;;;;;;10.28;79.42;153999.22;4948938;28;20454;-78
2023/02/20 08:30:22;;;;;;;7.57;4.17;;;;;;;10.31;82.42;154007.00;4955066;28;20580;-77
2023/02/20 08:32:49;;;;;;;4.60;3.10;;;;;;;10.26;80.02;153994.03;4954317;28;20625;-78
2023/02/20 08:35:16;;;;;;;5.43;3.13;;;;;;;10.25;80.29;153992.75;4958514;28;21051;-78
2023/02/20 08:37:45;;;;;;;6.43;3.60;;;;;;;10.26;80.75;153995.34;4959042;28;20458;-78
2023/02/20 08:40:12;;;;;;;5.67;3.70;;;;;;;10.10;80.45;153952.56;4960232;28;20449;-78
2023/02/20 08:42:39;;;;;;;3.33;2.70;;;;;;;10.13;80.86;153961.69;4962085;28;20968;-78
2023/02/20 08:45:07;;;;;;;5.30;3.10;;;;;;;10.26;81.19;153994.03;4958728;28;20455;-78
2023/02/20 08:47:34;;;;;;;6.27;3.10;;;;;;;10.33;78.82;154012.16;4954320;28;20485;-78
2023/02/20 08:50:01;;;;;;;3.80;2.90;;;;;;;10.30;79.24;154004.38;4948425;28;20450;-78
2023/02/20 08:52:28;;;;;;;4.03;3.67;;;;;;;10.28;80.07;153999.22;4946606;28;20452;-77
2023/02/20 08:54:56;;;;;;;4.27;3.20;;;;;;;10.26;79.78;153994.03;4949808;28;20624;-78
2023/02/20 08:57:23;;;;;;;4.23;2.57;;;;;;;10.20;81.13;153978.50;4943820;28;20886;-78
2023/02/20 08:59:49;;;;;;;5.33;3.17;;;;;;;10.16;79.91;153969.47;4948352;28;20466;-77
2023/02/20 09:02:17;;;;;;;4.33;3.00;;;;;;;10.28;78.46;153999.22;4942422;28;20545;-78
2023/02/20 09:04:44;;;;;;;3.30;2.50;;;;;;;10.21;79.88;153982.41;4959807;28;20455;-78
2023/02/20 09:07:12;;;;;;;3.37;2.67;;;;;;;10.28;80.27;154000.50;4957083;28;20466;-77
2023/02/20 09:09:38;;;;;;;4.60;2.53;;;;;;;10.32;78.75;154010.91;4960362;28;20456;-78
2023/02/20 09:12:08;;;;;;;6.30;2.87;;;;;;;10.48;79.88;154051.03;4948283;28;20462;-78
2023/02/20 09:14:34;;;;;;;4.57;2.70;;;;;;;10.43;75.37;154038.09;4958984;28;20500;-77
2023/02/20 09:17:01;;;;;;;4.23;2.77;;;;;;;10.40;77.76;154030.31;4944623;28;20557;-84
2023/02/20 09:27:49;;;;;;;3.73;2.60;;;;;;;10.42;76.09;154035.47;4947851;23;21023;-83
2023/02/20 09:30:18;;;;;;;3.30;2.33;;;;;;;10.34;77.14;154014.75;4888930;29;20556;-83
2023/02/20 09:32:46;;;;;;;6.97;2.17;;;;;;;10.41;77.03;154032.88;4889060;29;20465;-83
2023/02/20 09:35:15;;;;;;;3.90;2.33;;;;;;;10.45;75.34;154041.94;4890348;29;20887;-84
2023/02/20 09:37:43;;;;;;;4.23;2.13;;;;;;;10.48;75.32;154049.72;4902411;29;20574;-83
2023/02/20 09:40:11;;;;;;;3.77;2.90;;;;;;;10.54;75.99;154066.53;4888791;29;20926;-83
2023/02/20 09:42:47;;;;;;;4.70;2.70;;;;;;;10.59;76.54;154078.22;4905154;29;20551;-84
2023/02/20 09:45:18;;;;;;;3.20;2.00;;;;;;;10.70;74.27;154106.66;4885823;29;20441;-83
2023/02/20 09:47:56;;;;;;;3.70;2.10;;;;;;;10.68;76.00;154101.50;4903677;29;20586;-84
2023/02/20 09:50:30;;;;;;;3.90;2.10;;;;;;;10.68;75.72;154102.78;4892935;29;20452;-83
2023/02/20 09:53:00;;;;;;;5.03;2.40;;;;;;;10.84;74.76;154144.25;4908100;29;20801;-83
2023/02/20 09:55:30;;;;;;;3.40;2.37;;;;;;;10.91;74.16;154161.06;4890576;29;20473;-83
2023/02/20 09:57:57;;;;;;;5.10;2.17;;;;;;;11.00;74.25;154184.38;4906250;29;20509;-84
2023/02/20 10:00:29;;;;;;;4.40;1.70;;;;;;;10.99;72.58;154183.09;4906917;29;20460;-83
2023/02/20 10:03:04;;;;;;;4.00;2.53;;;;;;;11.01;74.59;154188.25;4895279;29;20457;-83
2023/02/20 10:05:31;;;;;;;2.63;2.10;;;;;;;10.99;74.48;154183.09;4880473;29;20454;-84
2023/02/20 10:07:58;;;;;;;4.03;2.53;;;;;;;11.05;73.12;154196.03;4888603;29;20466;-83
2023/02/20 10:10:27;;;;;;;3.70;2.07;;;;;;;11.07;76.04;154201.25;4906523;29;20481;-83
2023/02/20 10:13:03;;;;;;;2.67;2.17;;;;;;;10.93;75.25;154166.28;4890350;29;20445;-83
2023/02/20 10:15:38;;;;;;;3.13;2.17;;;;;;;10.92;73.54;154164.97;4894875;29;21180;-83
2023/02/20 10:18:15;;;;;;;3.27;2.10;;;;;;;10.98;75.66;154179.22;4894080;29;20457;-83
2023/02/20 10:20:49;;;;;;;3.30;1.80;;;;;;;10.95;73.01;154171.44;4895338;29;20807;-83
2023/02/20 10:23:20;;;;;;;3.20;2.07;;;;;;;10.97;75.07;154176.59;4896543;29;20462;-84
2023/02/20 10:25:51;;;;;;;4.17;2.40;;;;;;;10.95;74.61;154172.75;4910246;29;20493;-83
2023/02/20 10:28:19;;;;;;;4.20;2.03;;;;;;;10.88;73.30;154153.31;4905323;29;20495;-84
2023/02/20 10:30:49;;;;;;;4.20;2.57;;;;;;;10.87;74.77;154152.03;4890286;29;20461;-84
2023/02/20 10:33:22;;;;;;;5.33;2.27;;;;;;;10.91;76.67;154161.06;4893235;29;21036;-83
2023/02/20 10:35:53;;;;;;;2.87;1.80;;;;;;;10.82;75.14;154137.78;4903139;29;20482;-84
2023/02/20 10:38:23;;;;;;;2.80;1.50;;;;;;;10.85;76.36;154145.53;4892679;29;20524;-83
2023/02/20 10:40:53;;;;;;;2.87;1.80;;;;;;;10.88;74.92;154153.31;4895009;29;20485;-83
2023/02/20 10:43:22;;;;;;;3.33;1.90;;;;;;;10.89;77.58;154155.88;4891549;29;20492;-82
2023/02/20 10:45:54;;;;;;;3.23;2.30;;;;;;;10.90;74.24;154159.78;4906790;29;20452;-82
2023/02/20 10:48:23;;;;;;;3.63;2.40;;;;;;;10.92;73.10;154164.97;4907194;29;20454;-85
2023/02/20 10:50:53;;;;;;;3.60;1.70;;;;;;;10.98;72.41;154180.53;4889536;29;20542;-83
2023/02/20 10:53:26;;;;;;;2.90;1.83;;;;;;;11.04;72.51;154193.47;4905287;29;20856;-82
2023/02/20 10:55:56;;;;;;;4.03;2.17;;;;;;;11.00;74.33;154185.69;4886569;29;20466;-82
2023/02/20 10:58:27;;;;;;;3.10;2.10;;;;;;;10.98;75.16;154179.22;4898125;29;20865;-83
2023/02/20 11:00:57;;;;;;;3.17;2.10;;;;;;;11.00;74.54;154184.38;4903714;29;20788;-83
2023/02/20 11:03:28;;;;;;;3.77;2.40;;;;;;;11.02;74.07;154190.84;4890840;29;20669;-82
2023/02/20 11:05:57;;;;;;;3.40;2.40;;;;;;;11.09;74.40;154206.41;4903486;29;20540;-82
2023/02/20 11:08:23;;;;;;;2.63;2.37;;;;;;;11.06;73.76;154198.63;4865992;29;20461;-82
2023/02/20 11:10:54;;;;;;;3.83;2.00;;;;;;;11.05;73.23;154196.03;4902864;29;20813;-82
2023/02/20 11:13:24;;;;;;;4.63;2.00;;;;;;;11.05;73.70;154196.03;4904313;29;20884;-82
2023/02/20 11:15:55;;;;;;;3.37;2.03;;;;;;;11.13;74.15;154218.06;4891072;29;21106;-83
2023/02/20 11:18:28;;;;;;;3.27;2.20;;;;;;;11.17;72.87;154227.16;4901582;29;20462;-82
2023/02/20 11:20:56;;;;;;;5.37;2.40;;;;;;;11.18;72.85;154229.72;4877456;29;20459;-82
2023/02/20 11:23:40;;;;;;;4.23;1.90;;;;;;;11.18;74.03;154229.72;4887302;29;20453;-83
2023/02/20 11:26:26;;;;;;;7.60;3.00;;;;;;;11.15;74.15;154221.94;4907861;29;20485;-82
2023/02/20 11:29:11;;;;;;;5.00;1.80;;;;;;;11.17;72.88;154227.16;4891804;29;20530;-82
2023/02/20 11:31:40;;;;;;;4.07;2.10;;;;;;;11.15;77.67;154223.22;4901422;29;20454;-82
2023/02/20 11:34:15;;;;;;;4.07;1.90;;;;;;;11.24;74.47;154245.25;4887997;29;20469;-82
2023/02/20 11:36:45;;;;;;;4.60;2.20;;;;;;;11.29;73.88;154259.53;4904110;29;21046;-82
2023/02/20 11:39:18;;;;;;;4.10;2.23;;;;;;;11.35;71.14;154273.78;4906234;29;20454;-82
2023/02/20 11:41:45;;;;;;;4.13;2.30;;;;;;;11.37;71.67;154280.25;4905219;29;20446;-83
2023/02/20 11:44:25;;;;;;;2.97;2.60;;;;;;;11.39;70.92;154284.13;4894844;29;20446;-82
2023/02/20 11:47:21;;;;;;;4.10;2.20;;;;;;;11.36;75.44;154276.34;4890523;29;20540;-82
2023/02/20 11:49:50;;;;;;;3.87;1.80;;;;;;;11.38;74.62;154281.56;4901677;29;20458;-82
2023/02/20 11:52:18;;;;;;;3.80;1.83;;;;;;;11.44;73.42;154297.06;4902435;29;20458;-82
2023/02/20 11:54:46;;;;;;;3.97;2.20;;;;;;;11.31;72.64;154264.69;4904341;29;20533;-82
2023/02/20 11:57:25;;;;;;;3.67;2.00;;;;;;;11.33;71.39;154268.59;4887841;29;21047;-82
2023/02/20 11:59:52;;;;;;;3.57;1.70;;;;;;;11.39;71.94;154284.13;4900997;29;20476;-82
2023/02/20 12:02:28;;;;;;;2.77;2.10;;;;;;;11.42;72.34;154291.91;4904043;29;21029;-82
2023/02/20 12:05:15;;;;;;;3.30;1.90;;;;;;;11.40;76.91;154286.72;4891429;29;21102;-82
2023/02/20 12:07:44;;;;;;;3.33;2.50;;;;;;;11.50;70.84;154312.63;4891150;29;20458;-82